Time;durP1;ratioP1;P1;durP2;ratioP2;P2;SDS_P1;SDS_P2;PMS_P1;PMS_P2;Temp;Humidity;BMP_temperature;BMP_pressure;BME280_temperature;BME280_humidity;BME280_pressure;Samples;Min_cycle;Max_cycle;Signal;HPM_P1;HPM_P2
2022/05/10 00:01:04;;;;;;;18.95;12.55;;;;;;;15.90;71.15;101845.94;5031395;28;20488;-75
2022/05/10 00:03:37;;;;;;;17.15;11.80;;;;;;;15.84;70.62;101846.88;5032554;28;20037;-74
2022/05/10 00:06:05;;;;;;;21.20;11.60;;;;;;;15.80;71.39;101845.69;5033676;28;20060;-74
2022/05/10 00:08:31;;;;;;;20.65;12.40;;;;;;;15.81;70.78;101842.72;5033560;28;20053;-75
2022/05/10 00:10:56;;;;;;;16.10;12.20;;;;;;;15.81;71.53;101847.34;5033461;28;20365;-73
2022/05/10 00:13:23;;;;;;;21.73;12.57;;;;;;;15.73;71.75;101841.13;5032958;28;20055;-73
2022/05/10 00:15:49;;;;;;;18.00;11.82;;;;;;;15.72;72.03;101839.47;5033526;28;20543;-73
2022/05/10 00:18:16;;;;;;;22.02;12.18;;;;;;;15.67;72.58;101839.34;5033207;28;20112;-74
2022/05/10 00:20:43;;;;;;;19.35;11.68;;;;;;;15.60;72.84;101831.25;5033141;28;20095;-72
2022/05/10 00:23:09;;;;;;;22.70;13.25;;;;;;;15.57;72.70;101834.47;5031716;28;20388;-73
2022/05/10 00:25:34;;;;;;;17.35;12.95;;;;;;;15.45;71.62;101830.06;5033127;28;20037;-74
2022/05/10 00:28:00;;;;;;;20.40;13.10;;;;;;;15.44;72.52;101828.38;5033096;28;20072;-74
2022/05/10 00:30:26;;;;;;;22.05;13.20;;;;;;;15.40;72.17;101820.66;5033270;28;20033;-73
2022/05/10 00:32:51;;;;;;;22.65;13.40;;;;;;;15.37;72.05;101810.22;5033362;28;20032;-74
2022/05/10 00:35:22;;;;;;;21.13;12.90;;;;;;;15.32;72.51;101818.25;5033267;28;20025;-75
2022/05/10 00:37:50;;;;;;;22.70;13.77;;;;;;;15.29;73.12;101817.91;5032678;28;20027;-72
2022/05/10 00:40:19;;;;;;;19.27;13.10;;;;;;;15.24;74.06;101818.63;5032394;28;20033;-75
2022/05/10 00:42:49;;;;;;;19.33;13.23;;;;;;;15.22;73.51;101815.28;5032905;28;20037;-74
2022/05/10 00:45:19;;;;;;;16.73;12.68;;;;;;;15.15;74.79;101806.38;5031383;28;20037;-75
2022/05/10 00:48:08;;;;;;;21.42;13.93;;;;;;;15.16;73.99;101816.22;5033198;28;20116;-73
2022/05/10 00:50:43;;;;;;;18.90;13.82;;;;;;;15.14;74.44;101816.47;5032781;28;20029;-76
2022/05/10 00:53:14;;;;;;;16.95;13.13;;;;;;;15.10;75.36;101809.81;5032677;28;20029;-74
2022/05/10 00:55:46;;;;;;;18.42;13.77;;;;;;;15.07;76.06;101811.09;5031280;28;20041;-75
2022/05/10 00:58:23;;;;;;;18.55;13.45;;;;;;;15.04;75.56;101806.09;5032603;28;20117;-75
2022/05/10 01:00:49;;;;;;;23.20;14.63;;;;;;;14.97;76.03;101804.53;5029618;28;20029;-74
2022/05/10 01:03:22;;;;;;;19.95;14.27;;;;;;;14.95;76.13;101806.66;5032475;28;20025;-75
2022/05/10 01:05:59;;;;;;;18.77;13.73;;;;;;;14.91;74.43;101795.38;5032719;28;20434;-73
2022/05/10 01:08:37;;;;;;;20.25;13.95;;;;;;;14.89;75.83;101797.50;5032201;28;20054;-72
2022/05/10 01:11:12;;;;;;;23.52;15.60;;;;;;;14.88;74.96;101793.13;5032488;28;20025;-75
2022/05/10 01:13:52;;;;;;;25.20;15.25;;;;;;;14.95;75.25;101795.78;5032161;28;20378;-74
2022/05/10 01:16:20;;;;;;;21.65;15.15;;;;;;;14.88;76.56;101793.13;5032053;28;20060;-75
2022/05/10 01:18:47;;;;;;;19.60;14.68;;;;;;;14.83;75.03;101784.81;5032498;28;20529;-73
2022/05/10 01:21:42;;;;;;;25.83;15.25;;;;;;;14.86;74.74;101790.63;5032075;28;20032;-72
2022/05/10 01:24:41;;;;;;;25.27;15.45;;;;;;;14.80;74.50;101785.28;5030737;28;20183;-73
2022/05/10 01:27:31;;;;;;;23.48;16.33;;;;;;;14.74;75.19;101783.47;5032151;28;20096;-73
2022/05/10 01:30:04;;;;;;;23.73;16.10;;;;;;;14.77;75.98;101778.38;5032490;28;20048;-74
2022/05/10 01:35:51;;;;;;;22.10;15.80;;;;;;;14.71;76.43;101771.97;5032580;28;20087;-72
2022/05/10 01:38:34;;;;;;;24.83;15.95;;;;;;;14.67;76.34;101767.19;5031878;28;20043;-71
2022/05/10 01:41:39;;;;;;;22.17;15.85;;;;;;;14.69;75.79;101768.66;5032431;28;20049;-72
2022/05/10 01:44:16;;;;;;;22.45;15.43;;;;;;;14.60;76.89;101761.81;5026050;28;20041;-72
2022/05/10 01:46:44;;;;;;;25.73;17.23;;;;;;;14.55;77.08;101753.50;5031018;28;20026;-76
2022/05/10 01:49:30;;;;;;;26.38;16.15;;;;;;;14.57;76.97;101756.84;5031830;28;20030;-71
2022/05/10 01:52:01;;;;;;;26.23;16.30;;;;;;;14.48;78.24;101742.69;5032273;28;20132;-72
2022/05/10 01:54:47;;;;;;;20.92;15.50;;;;;;;14.56;76.60;101751.63;5031989;28;20042;-75
2022/05/10 01:57:16;;;;;;;24.05;16.35;;;;;;;14.46;77.67;101744.81;5031871;28;20031;-74
2022/05/10 01:59:50;;;;;;;23.80;15.95;;;;;;;14.46;77.53;101743.97;5031685;28;20041;-75
2022/05/10 02:02:19;;;;;;;27.77;15.90;;;;;;;14.44;77.77;101743.38;5029702;28;20452;-73
2022/05/10 02:04:48;;;;;;;29.33;16.48;;;;;;;14.36;78.18;101734.47;5032214;28;20160;-72
2022/05/10 02:07:19;;;;;;;25.88;16.88;;;;;;;14.41;78.64;101738.41;5030498;28;20389;-75
2022/05/10 02:09:59;;;;;;;22.90;16.85;;;;;;;14.42;77.69;101740.03;5032003;28;20476;-74
2022/05/10 02:12:39;;;;;;;27.63;16.83;;;;;;;14.44;78.61;101732.50;5033749;28;20038;-71
2022/05/10 02:15:26;;;;;;;21.35;16.48;;;;;;;14.47;77.79;101732.03;5035452;28;20041;-73
2022/05/10 02:18:20;;;;;;;25.83;17.02;;;;;;;14.45;78.09;101734.16;5035857;28;20033;-75
2022/05/10 02:21:02;;;;;;;27.10;17.35;;;;;;;14.49;76.87;101727.19;5027241;28;20049;-74
2022/05/10 02:23:33;;;;;;;26.17;17.48;;;;;;;14.50;78.77;101723.41;5035868;28;20030;-74
2022/05/10 02:26:15;;;;;;;23.60;17.25;;;;;;;14.58;78.53;101724.97;5036165;28;20049;-83
2022/05/10 02:29:03;;;;;;;22.60;16.15;;;;;;;14.60;78.46;101723.69;5035146;28;20128;-76
2022/05/10 02:33:06;;;;;;;22.65;16.80;;;;;;;14.52;78.61;101716.66;5035563;28;20425;-74
2022/05/10 02:34:28;;;;;;;24.88;17.52;;;;;;;14.55;78.63;101715.34;5035610;28;20045;-72
2022/05/10 02:36:53;;;;;;;29.02;17.85;;;;;;;14.55;79.02;101709.91;5035463;28;20116;-72
2022/05/10 02:39:19;;;;;;;24.70;17.25;;;;;;;14.51;79.33;101704.09;5034930;28;20112;-71
2022/05/10 02:41:44;;;;;;;28.00;17.75;;;;;;;14.55;79.02;101704.47;5050697;28;20381;-72
2022/05/10 02:44:09;;;;;;;24.23;17.45;;;;;;;14.52;79.53;101700.34;5033462;28;20030;-73
2022/05/10 02:46:35;;;;;;;21.02;16.00;;;;;;;14.58;79.07;101703.19;5035085;28;20431;-72
2022/05/10 02:49:00;;;;;;;27.08;18.00;;;;;;;14.63;78.88;101708.78;5034910;28;20023;-72
2022/05/10 02:51:25;;;;;;;25.67;16.23;;;;;;;14.60;79.42;101701.03;5035050;28;20061;-72
2022/05/10 02:53:51;;;;;;;25.40;17.60;;;;;;;14.56;79.39;101694.41;5035118;28;20036;-72
2022/05/10 02:56:21;;;;;;;23.90;16.95;;;;;;;14.60;79.38;101692.88;5034768;28;20033;-72
2022/05/10 02:59:01;;;;;;;27.52;17.17;;;;;;;14.58;78.99;101684.94;5035025;28;20045;-72
2022/05/10 03:01:51;;;;;;;22.25;17.00;;;;;;;14.65;78.20;101688.44;5032256;28;20037;-72
2022/05/10 03:04:17;;;;;;;24.35;16.40;;;;;;;14.60;78.86;101685.56;5034881;28;20045;-72
2022/05/10 03:06:46;;;;;;;24.35;16.35;;;;;;;14.59;78.44;101675.72;5034671;28;20033;-72
2022/05/10 03:09:11;;;;;;;23.33;16.33;;;;;;;14.61;78.71;101679.06;5034639;28;20111;-72
2022/05/10 03:11:37;;;;;;;24.25;16.77;;;;;;;14.64;78.98;101675.03;5034596;28;20588;-72
2022/05/10 03:14:05;;;;;;;22.17;16.23;;;;;;;14.65;78.94;101672.09;5034890;28;20590;-72
2022/05/10 03:16:31;;;;;;;22.75;16.15;;;;;;;14.66;78.86;101671.03;5034346;28;20041;-72
2022/05/10 03:18:57;;;;;;;21.48;15.82;;;;;;;14.67;78.20;101678.16;5034338;28;20538;-72
2022/05/10 03:21:23;;;;;;;22.45;16.35;;;;;;;14.67;78.26;101669.13;5034488;28;20140;-72
2022/05/10 03:23:48;;;;;;;21.15;16.35;;;;;;;14.66;77.88;101672.91;5033524;28;20037;-72
2022/05/10 03:26:18;;;;;;;22.15;16.75;;;;;;;14.62;79.02;101672.56;5034107;28;20025;-72
2022/05/10 03:28:43;;;;;;;24.30;16.02;;;;;;;14.64;77.70;101670.41;5034252;28;20026;-72
2022/05/10 03:31:11;;;;;;;22.23;16.40;;;;;;;14.66;78.07;101673.75;5033690;28;20094;-72
2022/05/10 03:33:36;;;;;;;20.98;16.27;;;;;;;14.63;79.05;101666.06;5034401;28;20354;-72
2022/05/10 03:36:02;;;;;;;22.00;15.90;;;;;;;14.70;78.15;101664.06;5034086;28;20025;-72
2022/05/10 03:38:29;;;;;;;26.40;16.48;;;;;;;14.69;78.30;101659.69;5034048;28;20076;-73
2022/05/10 03:40:54;;;;;;;24.55;16.05;;;;;;;14.69;78.30;101659.69;5034089;28;20037;-73
2022/05/10 03:43:19;;;;;;;22.83;16.13;;;;;;;14.64;79.20;101648.63;5033674;28;20042;-72
2022/05/10 03:45:44;;;;;;;24.20;16.08;;;;;;;14.70;79.07;101647.72;5034122;28;20423;-72
2022/05/10 03:48:10;;;;;;;22.73;16.20;;;;;;;14.63;78.00;101652.44;5033675;28;20033;-72
2022/05/10 03:50:35;;;;;;;22.77;16.73;;;;;;;14.69;78.37;101653.41;5034155;28;20477;-72
2022/05/10 03:53:01;;;;;;;23.88;16.35;;;;;;;14.65;77.46;101652.19;5033687;28;20025;-72
2022/05/10 03:55:28;;;;;;;22.27;15.82;;;;;;;14.63;77.35;101649.72;5033589;28;20053;-72
2022/05/10 03:57:54;;;;;;;23.50;16.67;;;;;;;14.63;78.03;101654.31;5034031;28;20044;-72
2022/05/10 04:00:23;;;;;;;22.98;16.33;;;;;;;14.61;79.69;101638.19;5033656;28;20488;-72
2022/05/10 04:02:49;;;;;;;26.35;16.42;;;;;;;14.65;79.25;101646.75;5031990;28;20025;-72
2022/05/10 04:05:16;;;;;;;23.85;16.13;;;;;;;14.59;78.57;101644.94;5033351;28;20033;-73
2022/05/10 04:07:42;;;;;;;29.08;16.60;;;;;;;14.66;78.37;101642.94;5033745;28;20346;-72
2022/05/10 04:10:10;;;;;;;27.05;15.90;;;;;;;14.63;77.82;101641.53;5031735;28;20060;-72
2022/05/10 04:12:37;;;;;;;21.55;15.88;;;;;;;14.63;78.96;101641.53;5033347;28;20384;-72
2022/05/10 04:15:03;;;;;;;22.50;16.17;;;;;;;14.66;78.36;101641.06;5033562;28;20072;-72
2022/05/10 04:17:29;;;;;;;25.77;17.20;;;;;;;14.63;77.62;101641.53;5033045;28;20112;-72
2022/05/10 04:19:55;;;;;;;23.08;16.10;;;;;;;14.69;78.68;101634.34;5033508;28;20112;-72
2022/05/10 04:22:20;;;;;;;26.10;16.75;;;;;;;14.65;78.21;101633.94;5033040;28;20224;-72
2022/05/10 04:24:45;;;;;;;24.90;16.92;;;;;;;14.70;77.97;101641.41;5032883;28;20033;-72
2022/05/10 04:27:10;;;;;;;24.65;15.65;;;;;;;14.74;77.10;101641.81;5033172;28;20037;-72
2022/05/10 04:29:36;;;;;;;30.00;16.70;;;;;;;14.69;77.44;101640.59;5031890;28;20487;-73
2022/05/10 04:32:02;;;;;;;28.17;16.17;;;;;;;14.70;77.64;101635.97;5048600;28;20022;-72
2022/05/10 04:34:27;;;;;;;26.50;16.00;;;;;;;14.74;78.63;101637.19;5032462;28;20432;-73
2022/05/10 04:36:52;;;;;;;23.70;15.88;;;;;;;14.78;77.79;101629.34;5032668;28;20461;-72
2022/05/10 04:39:17;;;;;;;24.90;16.08;;;;;;;14.78;76.97;101630.19;5032618;28;20061;-73
2022/05/10 04:41:47;;;;;;;25.90;16.33;;;;;;;14.79;77.03;101633.75;5015335;28;20064;-72
2022/05/10 04:44:13;;;;;;;24.38;15.70;;;;;;;14.80;75.50;101630.78;5032874;28;20033;-72
2022/05/10 04:46:40;;;;;;;23.52;15.85;;;;;;;14.83;77.99;101621.31;5032854;28;20112;-72
2022/05/10 04:49:07;;;;;;;25.02;15.48;;;;;;;14.91;77.52;101625.59;5032832;28;20033;-72
2022/05/10 04:51:33;;;;;;;27.00;15.60;;;;;;;14.96;75.18;101618.38;5032769;28;20061;-72
2022/05/10 04:53:58;;;;;;;24.02;16.15;;;;;;;14.99;76.13;101614.34;5031131;28;20061;-72
2022/05/10 04:56:24;;;;;;;26.10;16.27;;;;;;;15.05;76.62;101618.84;5032681;28;20022;-73
2022/05/10 04:58:51;;;;;;;29.52;16.75;;;;;;;15.04;76.00;101626.19;5032757;28;20503;-72
2022/05/10 05:01:17;;;;;;;27.13;16.02;;;;;;;15.07;76.96;101617.56;5030277;28;20029;-72
2022/05/10 05:03:44;;;;;;;22.95;15.10;;;;;;;15.18;73.84;101620.53;5032890;28;20527;-72
2022/05/10 05:06:09;;;;;;;25.48;15.93;;;;;;;15.14;74.84;101614.72;5032721;28;20026;-73
2022/05/10 05:08:34;;;;;;;25.45;15.18;;;;;;;15.23;73.35;101623.34;5031911;28;20042;-72
2022/05/10 05:11:01;;;;;;;26.40;15.93;;;;;;;15.25;74.92;101626.69;5032792;28;20034;-73
2022/05/10 05:13:26;;;;;;;20.77;14.07;;;;;;;15.29;73.59;101624.31;5031089;28;20432;-73
2022/05/10 05:15:52;;;;;;;21.10;14.10;;;;;;;15.32;72.66;101626.56;5031306;28;20033;-72
2022/05/10 05:18:17;;;;;;;21.08;14.23;;;;;;;15.38;73.98;101623.72;5032072;28;20499;-72
2022/05/10 05:20:43;;;;;;;20.67;14.38;;;;;;;15.35;74.38;101620.63;5032515;28;20432;-72
2022/05/10 05:23:10;;;;;;;19.40;13.65;;;;;;;15.44;73.30;101629.28;5032311;28;20030;-72
2022/05/10 05:25:37;;;;;;;19.60;13.30;;;;;;;15.47;72.64;101628.81;5032038;28;20435;-72
2022/05/10 05:28:03;;;;;;;20.05;13.40;;;;;;;15.51;72.74;101630.81;5032391;28;20032;-72
2022/05/10 05:30:29;;;;;;;22.35;13.50;;;;;;;15.50;74.58;101620.13;5030975;28;20091;-72
2022/05/10 05:32:54;;;;;;;18.25;13.20;;;;;;;15.56;72.42;101627.38;5031236;28;20541;-72
2022/05/10 05:35:20;;;;;;;18.77;13.20;;;;;;;15.57;73.10;101621.66;5031902;28;20037;-73
2022/05/10 05:37:45;;;;;;;21.27;13.73;;;;;;;15.62;73.44;101629.13;5032229;28;20037;-73
2022/05/10 05:40:15;;;;;;;22.13;13.77;;;;;;;15.64;73.00;101629.75;5032427;28;20476;-72
2022/05/10 05:42:41;;;;;;;19.60;13.18;;;;;;;15.66;72.24;101627.59;5032022;28;20477;-72
2022/05/10 05:45:08;;;;;;;18.52;13.32;;;;;;;15.71;71.88;101626.88;5031077;28;20037;-72
2022/05/10 05:47:34;;;;;;;16.98;13.43;;;;;;;15.75;71.46;101628.06;5034621;28;20107;-72
2022/05/10 05:49:59;;;;;;;23.08;12.68;;;;;;;15.77;72.62;101617.72;5036083;28;20460;-72
2022/05/10 05:52:25;;;;;;;26.52;14.63;;;;;;;15.82;71.65;101619.75;5035799;28;20061;-72
2022/05/10 05:54:51;;;;;;;19.67;13.15;;;;;;;15.91;71.84;101621.03;5036223;28;20376;-72
2022/05/10 05:57:17;;;;;;;19.75;12.45;;;;;;;15.92;71.79;101617.25;5035877;28;20037;-73
2022/05/10 05:59:43;;;;;;;19.27;13.50;;;;;;;15.95;72.08;101612.09;5034632;28;20114;-73
2022/05/10 06:02:11;;;;;;;23.10;13.38;;;;;;;15.99;71.54;101598.81;5033855;28;20112;-72
2022/05/10 06:04:37;;;;;;;18.02;12.68;;;;;;;16.03;71.88;101605.44;5035878;28;20155;-72
2022/05/10 06:07:02;;;;;;;16.88;11.65;;;;;;;16.06;72.40;101599.50;5035292;28;20068;-73
2022/05/10 06:09:27;;;;;;;17.48;12.48;;;;;;;16.09;72.17;101609.94;5034053;28;20448;-72
2022/05/10 06:11:53;;;;;;;15.93;11.25;;;;;;;16.16;71.30;101609.78;5035633;28;20113;-72
2022/05/10 06:14:18;;;;;;;16.42;11.48;;;;;;;16.21;70.84;101607.16;5035574;28;20033;-72
2022/05/10 06:16:44;;;;;;;19.42;12.15;;;;;;;16.27;72.08;101610.81;5034609;28;20400;-72
2022/05/10 06:19:10;;;;;;;15.27;11.07;;;;;;;16.33;71.13;101612.56;5035658;28;20371;-72
2022/05/10 06:21:36;;;;;;;17.60;10.43;;;;;;;16.40;70.25;101610.50;5034309;28;20063;-72
2022/05/10 06:24:01;;;;;;;15.13;10.45;;;;;;;16.46;69.81;101606.78;5050472;28;20041;-73
2022/05/10 06:26:26;;;;;;;20.63;10.30;;;;;;;16.55;70.09;101607.22;5035564;28;20040;-73
2022/05/10 06:28:52;;;;;;;16.90;10.10;;;;;;;16.58;70.64;101605.91;5035449;28;20495;-72
2022/05/10 06:31:17;;;;;;;17.52;9.80;;;;;;;16.65;70.24;101606.56;5035326;28;20029;-73
2022/05/10 06:33:42;;;;;;;21.77;10.52;;;;;;;16.71;72.02;101599.28;5035559;28;20096;-73
2022/05/10 06:36:08;;;;;;;14.45;9.55;;;;;;;16.76;69.56;101607.59;5035747;28;20092;-72
2022/05/10 06:38:34;;;;;;;14.00;8.73;;;;;;;16.81;70.21;101605.75;5033886;28;20040;-72
2022/05/10 06:41:02;;;;;;;17.00;8.95;;;;;;;16.90;70.64;101602.63;5035418;28;20025;-72
2022/05/10 06:43:28;;;;;;;16.13;9.13;;;;;;;16.95;71.17;101592.63;5035060;28;20036;-74
2022/05/10 06:45:57;;;;;;;20.35;8.85;;;;;;;17.00;69.84;101592.69;5035336;28;20037;-72
2022/05/10 06:48:23;;;;;;;17.23;8.77;;;;;;;17.08;69.79;101596.91;5035105;28;20033;-72
2022/05/10 06:50:49;;;;;;;16.50;8.38;;;;;;;17.15;68.58;101592.09;5034936;28;20033;-72
2022/05/10 06:53:14;;;;;;;17.90;8.38;;;;;;;17.27;68.46;101593.88;5035124;28;20175;-72
2022/05/10 06:55:40;;;;;;;16.40;8.00;;;;;;;17.32;69.12;101586.56;5034874;28;20469;-72
2022/05/10 06:58:06;;;;;;;11.80;7.47;;;;;;;17.37;68.75;101591.28;5034097;28;20443;-72
2022/05/10 07:00:34;;;;;;;13.68;7.10;;;;;;;17.46;68.00;101591.69;5032926;28;20033;-72
2022/05/10 07:03:03;;;;;;;18.05;8.18;;;;;;;17.49;68.49;101586.53;5034902;28;20045;-73
2022/05/10 07:05:29;;;;;;;19.25;7.60;;;;;;;17.57;67.93;101582.50;5034722;28;20029;-73
2022/05/10 07:07:54;;;;;;;15.77;7.38;;;;;;;17.65;67.30;101590.28;5034428;28;20025;-72
2022/05/10 07:10:19;;;;;;;15.35;7.20;;;;;;;17.74;66.88;101579.75;5033395;28;20044;-72
2022/05/10 07:12:45;;;;;;;18.48;7.07;;;;;;;17.81;67.45;101574.06;5033349;28;20036;-72
2022/05/10 07:15:17;;;;;;;9.20;6.90;;;;;;;17.91;67.54;101574.22;5034776;28;20492;-74
2022/05/10 07:17:42;;;;;;;8.43;6.85;;;;;;;17.96;66.48;101568.78;5033227;28;20362;-75
2022/05/10 07:20:10;;;;;;;13.68;7.00;;;;;;;18.02;65.42;101565.00;5034116;28;20028;-74
2022/05/10 07:22:36;;;;;;;11.20;6.72;;;;;;;18.10;65.17;101565.63;5049638;28;20108;-73
2022/05/10 07:25:03;;;;;;;11.40;6.93;;;;;;;18.17;64.09;101567.06;5033331;28;20047;-73
2022/05/10 07:27:28;;;;;;;11.25;6.85;;;;;;;18.26;64.85;101566.63;5034070;28;20022;-73
2022/05/10 07:29:53;;;;;;;12.05;6.80;;;;;;;18.39;66.03;101566.22;5034230;28;20045;-73
2022/05/10 07:32:20;;;;;;;12.65;6.50;;;;;;;18.44;65.38;101560.75;5034404;28;20052;-73
2022/05/10 07:34:46;;;;;;;12.52;6.78;;;;;;;18.49;63.91;101563.53;5034330;28;20034;-73
2022/05/10 07:37:12;;;;;;;12.98;6.45;;;;;;;18.60;62.92;101565.28;5034428;28;20485;-73
2022/05/10 07:39:37;;;;;;;10.27;6.25;;;;;;;18.64;62.76;101560.09;5034907;28;20028;-80
2022/05/10 07:42:04;;;;;;;11.23;6.63;;;;;;;18.66;62.28;101560.69;5033336;28;20033;-79
2022/05/10 07:44:30;;;;;;;8.35;5.97;;;;;;;18.70;61.89;101553.56;5033871;28;20104;-79
2022/05/10 07:46:56;;;;;;;8.35;5.95;;;;;;;18.78;62.03;101550.34;5034261;28;20477;-78
2022/05/10 07:49:21;;;;;;;11.07;5.88;;;;;;;18.84;61.80;101543.00;5033920;28;20040;-83
2022/05/10 07:51:47;;;;;;;9.18;5.88;;;;;;;18.92;63.35;101547.19;5034012;28;20108;-81
2022/05/10 07:54:12;;;;;;;9.20;5.82;;;;;;;18.99;61.32;101553.25;5032651;28;20033;-79
2022/05/10 07:56:38;;;;;;;14.82;5.38;;;;;;;19.05;61.24;101551.38;5032648;28;20053;-75
2022/05/10 07:59:04;;;;;;;9.23;5.38;;;;;;;19.12;60.71;101554.72;5033482;28;20452;-79
2022/05/10 08:01:30;;;;;;;11.57;6.18;;;;;;;19.19;60.72;101549.81;5030255;28;20064;-76
2022/05/10 08:03:55;;;;;;;14.93;5.55;;;;;;;19.21;61.53;101547.63;5034526;28;20040;-77
2022/05/10 08:06:21;;;;;;;8.93;5.53;;;;;;;19.28;59.67;101553.69;5033907;28;20025;-76
2022/05/10 08:08:47;;;;;;;12.70;5.35;;;;;;;19.33;59.35;101554.81;5032066;28;20060;-75
2022/05/10 08:11:12;;;;;;;11.38;6.03;;;;;;;19.39;58.84;101559.25;5033536;28;20021;-74
2022/05/10 08:13:38;;;;;;;9.20;5.55;;;;;;;19.38;59.05;101552.09;5032878;28;20028;-74
2022/05/10 08:16:04;;;;;;;12.75;5.55;;;;;;;19.43;58.99;101550.22;5032379;28;20026;-74
2022/05/10 08:18:30;;;;;;;13.10;5.95;;;;;;;19.43;58.81;101539.22;5033001;28;20489;-74
2022/05/10 08:20:58;;;;;;;10.10;5.25;;;;;;;19.46;58.53;101548.81;5034004;28;20120;-74
2022/05/10 08:23:26;;;;;;;10.15;5.30;;;;;;;19.51;58.47;101551.59;5032002;28;20069;-75
2022/05/10 08:25:56;;;;;;;12.48;5.60;;;;;;;19.52;58.39;101550.53;5033127;28;20554;-74
2022/05/10 08:28:23;;;;;;;14.95;5.43;;;;;;;19.54;57.74;101537.34;5031908;28;20396;-74
2022/05/10 08:30:49;;;;;;;21.60;6.75;;;;;;;19.53;57.26;101543.91;5033866;28;20029;-75
2022/05/10 08:33:20;;;;;;;10.55;5.70;;;;;;;19.58;57.51;101541.22;5048272;28;20124;-75
2022/05/10 08:35:53;;;;;;;12.27;5.43;;;;;;;19.54;57.92;101534.59;5031760;28;20160;-76
2022/05/10 08:38:19;;;;;;;15.68;5.75;;;;;;;19.60;58.70;101533.53;5032197;28;20038;-76
2022/05/10 08:41:09;;;;;;;15.00;5.18;;;;;;;19.61;57.55;101518.72;5032914;28;20036;-75
2022/05/10 08:43:48;;;;;;;14.38;5.78;;;;;;;19.67;56.76;101533.25;5031421;28;20052;-75
2022/05/10 08:46:17;;;;;;;14.07;4.90;;;;;;;19.68;57.45;101525.88;5032743;28;20091;-78
2022/05/10 08:48:46;;;;;;;12.20;5.22;;;;;;;19.72;56.93;101529.72;5031897;28;20041;-80
2022/05/10 08:51:12;;;;;;;19.23;5.32;;;;;;;19.76;56.38;101525.31;5032490;28;20036;-78
2022/05/10 08:53:37;;;;;;;11.43;5.05;;;;;;;19.83;55.47;101525.94;5047915;28;20443;-82
2022/05/10 08:56:21;;;;;;;9.90;4.60;;;;;;;19.86;56.95;101524.56;5033544;28;20511;-79
2022/05/10 08:58:56;;;;;;;6.35;4.55;;;;;;;19.94;56.08;101519.38;5032571;28;20037;-78
2022/05/10 09:01:26;;;;;;;5.88;4.80;;;;;;;19.99;56.23;101518.56;5030396;28;20108;-77
2022/05/10 09:04:03;;;;;;;10.98;5.40;;;;;;;20.08;55.18;101510.59;5032795;28;20065;-78
2022/05/10 09:06:42;;;;;;;10.05;4.47;;;;;;;20.22;55.19;101522.69;5032622;28;20053;-79
2022/05/10 09:09:25;;;;;;;7.78;4.80;;;;;;;20.30;54.92;101518.56;5032683;28;20056;-80
2022/05/10 09:12:12;;;;;;;10.60;5.10;;;;;;;20.39;55.15;101521.59;5032763;28;20048;-75
2022/05/10 09:14:48;;;;;;;11.15;4.82;;;;;;;20.44;54.65;101511.44;5031326;28;20470;-77
2022/05/10 09:17:16;;;;;;;11.27;4.82;;;;;;;20.53;54.91;101514.44;5031360;28;20072;-75
2022/05/10 09:19:43;;;;;;;9.43;4.82;;;;;;;20.62;53.47;101506.47;5031052;28;20041;-75
2022/05/10 09:22:52;;;;;;;11.70;5.00;;;;;;;20.71;53.92;101513.06;5041689;28;20396;-76
2022/05/10 09:25:28;;;;;;;7.20;4.68;;;;;;;20.78;53.17;101508.13;5018241;28;20050;-74
2022/05/10 09:27:54;;;;;;;12.00;5.45;;;;;;;20.82;52.58;101500.97;5031261;28;20029;-78
2022/05/10 09:30:32;;;;;;;12.55;5.10;;;;;;;20.89;53.66;101501.50;5031238;28;20109;-78
2022/05/10 09:35:50;;;;;;;9.05;5.25;;;;;;;20.99;52.88;101499.84;5145221;22;20042;-81
2022/05/10 09:38:17;;;;;;;8.68;4.90;;;;;;;21.04;52.85;101492.38;5000472;28;20443;-81
2022/05/10 09:40:43;;;;;;;9.90;5.05;;;;;;;21.11;52.79;101494.03;4969925;28;20061;-82
2022/05/10 09:43:25;;;;;;;11.18;4.90;;;;;;;21.12;54.13;101502.00;5009772;28;20389;-81
2022/05/10 09:46:25;;;;;;;8.90;5.20;;;;;;;21.17;53.48;101498.41;4992852;28;20471;-81
2022/05/10 09:48:51;;;;;;;13.38;5.40;;;;;;;21.14;52.53;101505.28;4946018;28;20038;-81
2022/05/10 09:51:24;;;;;;;10.18;4.85;;;;;;;21.21;52.42;101491.22;4992905;28;20520;-82
2022/05/10 09:53:53;;;;;;;11.48;4.95;;;;;;;21.28;52.42;101488.97;4992820;28;20044;-81
2022/05/10 09:56:24;;;;;;;14.65;5.28;;;;;;;21.40;53.08;101478.47;4992627;28;20035;-82
2022/05/10 09:58:56;;;;;;;16.55;5.50;;;;;;;21.50;51.78;101482.28;5000153;28;20030;-81
2022/05/10 10:01:42;;;;;;;9.95;4.80;;;;;;;21.61;52.37;101475.63;5004742;28;20574;-81
2022/05/10 10:04:33;;;;;;;9.68;4.63;;;;;;;21.73;51.70;101478.88;4982967;28;20018;-82
2022/05/10 10:07:13;;;;;;;12.18;5.00;;;;;;;21.81;52.07;101473.88;4993386;28;20046;-82
2022/05/10 10:09:41;;;;;;;8.73;4.35;;;;;;;21.92;50.34;101469.91;4993073;28;20030;-79
2022/05/10 10:12:16;;;;;;;10.75;4.82;;;;;;;22.02;50.07;101464.34;4992916;28;20041;-80
2022/05/10 10:14:47;;;;;;;15.50;4.70;;;;;;;22.08;49.78;101463.19;4993372;28;20032;-82
2022/05/10 10:17:33;;;;;;;13.10;4.40;;;;;;;22.20;49.02;101460.06;4975761;28;20057;-81
2022/05/10 10:20:14;;;;;;;16.75;4.63;;;;;;;22.35;48.24;101459.13;4994615;28;20026;-82
2022/05/10 10:22:46;;;;;;;12.50;4.05;;;;;;;22.53;48.62;101445.75;5001617;28;20042;-81
2022/05/10 10:25:37;;;;;;;10.93;4.10;;;;;;;22.74;48.04;101451.88;4993249;28;20030;-82
2022/05/10 10:28:05;;;;;;;;;;;;;;;22.77;47.80;101457.59;5005668;28;20493;-81
2022/05/10 10:30:44;;;;;;;13.82;4.40;;;;;;;22.78;46.93;101463.94;4995455;28;20410;-80
2022/05/10 10:33:20;;;;;;;21.95;3.85;;;;;;;22.81;45.56;101463.34;5008346;28;20030;-79
2022/05/10 10:35:50;;;;;;;10.60;4.07;;;;;;;22.79;45.26;101455.38;4991492;28;20047;-80
2022/05/10 10:38:20;;;;;;;14.27;4.45;;;;;;;22.88;45.67;101468.53;4976566;28;20062;-81
2022/05/10 10:40:59;;;;;;;18.13;4.88;;;;;;;22.92;45.01;101455.81;4981838;28;20027;-81
2022/05/10 10:43:30;;;;;;;14.35;4.22;;;;;;;23.05;44.95;101457.81;4974019;28;20038;-81
2022/05/10 10:46:15;;;;;;;12.60;4.25;;;;;;;23.13;44.98;101459.97;4976889;28;20037;-82
2022/05/10 10:48:48;;;;;;;16.17;4.75;;;;;;;23.11;45.09;101459.44;4976663;28;20031;-84
2022/05/10 10:51:17;;;;;;;13.65;4.45;;;;;;;23.03;44.68;101440.75;4976456;28;20070;-84
2022/05/10 10:53:45;;;;;;;13.73;4.32;;;;;;;23.08;45.64;101446.19;4975346;28;20026;-83
2022/05/10 10:56:33;;;;;;;14.30;3.92;;;;;;;23.19;45.56;101441.41;4975231;28;20129;-83
2022/05/10 10:59:19;;;;;;;18.17;4.40;;;;;;;23.13;45.19;101446.16;4991748;28;20034;-84
2022/05/10 11:01:47;;;;;;;19.60;4.90;;;;;;;23.07;44.73;101439.03;4972002;28;20070;-83
2022/05/10 11:04:44;;;;;;;20.65;4.60;;;;;;;23.03;45.40;101432.47;4976470;28;20359;-83
2022/05/10 11:07:18;;;;;;;16.65;5.05;;;;;;;23.02;45.41;101433.56;4976842;28;20042;-81
2022/05/10 11:10:02;;;;;;;15.93;4.57;;;;;;;23.05;45.31;101419.19;4978598;28;20038;-81
2022/05/10 11:12:41;;;;;;;20.23;4.63;;;;;;;23.07;45.04;101421.63;4986944;28;20039;-85
2022/05/10 11:15:48;;;;;;;20.63;5.00;;;;;;;23.07;45.97;101414.19;4991877;28;20035;-76
2022/05/10 11:18:52;;;;;;;19.48;5.40;;;;;;;23.08;44.96;101418.59;4976352;28;20031;-84
2022/05/10 11:21:28;;;;;;;20.95;4.57;;;;;;;23.06;45.25;101409.78;4976268;28;20075;-83
2022/05/10 11:24:23;;;;;;;18.35;3.83;;;;;;;23.13;45.62;101413.03;4975559;28;20043;-82
2022/05/10 11:26:59;;;;;;;18.23;5.25;;;;;;;23.16;45.02;101408.88;4992214;28;20385;-82
2022/05/10 11:29:35;;;;;;;18.65;4.90;;;;;;;23.22;44.40;101412.38;4975933;28;20311;-81
2022/05/10 11:32:22;;;;;;;15.95;4.95;;;;;;;23.33;45.48;101403.66;4972703;28;20130;-83
2022/05/10 11:35:08;;;;;;;10.20;4.43;;;;;;;23.50;44.73;101399.56;4961138;28;20070;-82
2022/05/10 11:37:42;;;;;;;14.98;4.82;;;;;;;23.59;44.49;101394.97;4978540;28;20023;-82